sensor_id;sensor_type;location;lat;lon;timestamp;pressure;altitude;pressure_sealevel;temperature;humidity
58668;BME280;59852;43.086;25.634;2023-09-19T09:15:52;98985.38;;;24.29;39.70
58668;BME280;59852;43.086;25.634;2023-09-19T09:18:19;98975.69;;;24.28;39.58
58668;BME280;59852;43.086;25.634;2023-09-19T09:20:45;98976.22;;;24.38;36.79
58668;BME280;59852;43.086;25.634;2023-09-19T09:23:12;98975.22;;;24.39;37.34
58668;BME280;59852;43.086;25.634;2023-09-19T09:25:48;98972.38;;;24.04;37.79
58668;BME280;59852;43.086;25.634;2023-09-19T09:28:25;98972.88;;;24.57;40.13
58668;BME280;59852;43.086;25.634;2023-09-19T09:34:01;98964.19;;;24.49;38.02
58668;BME280;59852;43.086;25.634;2023-09-19T09:36:33;98962.44;;;24.63;37.84
58668;BME280;59852;43.086;25.634;2023-09-19T10:13:34;98948.28;;;24.41;39.62
58668;BME280;59852;43.086;25.634;2023-09-19T10:18:58;98942.03;;;25.11;38.85
58668;BME280;59852;43.086;25.634;2023-09-19T10:46:36;98924.75;;;24.57;39.94
58668;BME280;59852;43.086;25.634;2023-09-19T10:49:48;98921.84;;;24.52;40.21
58668;BME280;59852;43.086;25.634;2023-09-19T11:02:35;98915.88;;;24.85;39.76
58668;BME280;59852;43.086;25.634;2023-09-19T11:09:00;98917.31;;;25.09;39.78
58668;BME280;59852;43.086;25.634;2023-09-19T11:11:56;98911.13;;;25.15;40.29
58668;BME280;59852;43.086;25.634;2023-09-19T11:22:23;98898.81;;;25.21;43.35
58668;BME280;59852;43.086;25.634;2023-09-19T11:24:51;98907.63;;;24.80;39.84
58668;BME280;59852;43.086;25.634;2023-09-19T11:27:16;98907.66;;;24.52;39.57
58668;BME280;59852;43.086;25.634;2023-09-19T11:29:43;98905.94;;;24.44;42.18
58668;BME280;59852;43.086;25.634;2023-09-19T11:32:08;98905.31;;;24.42;39.16
58668;BME280;59852;43.086;25.634;2023-09-19T11:34:41;98901.34;;;24.31;42.93
58668;BME280;59852;43.086;25.634;2023-09-19T11:39:39;98889.69;;;24.39;39.58
58668;BME280;59852;43.086;25.634;2023-09-19T11:44:52;98895.59;;;24.63;41.35
58668;BME280;59852;43.086;25.634;2023-09-19T11:47:21;98885.84;;;24.48;42.62
58668;BME280;59852;43.086;25.634;2023-09-19T11:49:47;98888.28;;;24.78;39.79
58668;BME280;59852;43.086;25.634;2023-09-19T11:52:18;98893.78;;;24.70;39.07
58668;BME280;59852;43.086;25.634;2023-09-19T11:54:47;98883.97;;;24.83;41.99
58668;BME280;59852;43.086;25.634;2023-09-19T11:57:20;98878.78;;;24.75;38.71
58668;BME280;59852;43.086;25.634;2023-09-19T11:59:46;98878.13;;;24.67;39.16
58668;BME280;59852;43.086;25.634;2023-09-19T12:02:13;98869.13;;;24.74;38.89
58668;BME280;59852;43.086;25.634;2023-09-19T12:04:46;98865.69;;;24.87;38.93
58668;BME280;59852;43.086;25.634;2023-09-19T12:07:16;98862.72;;;25.03;38.39
58668;BME280;59852;43.086;25.634;2023-09-19T12:12:19;98861.41;;;24.93;38.55
58668;BME280;59852;43.086;25.634;2023-09-19T12:14:48;98858.31;;;24.96;38.83
58668;BME280;59852;43.086;25.634;2023-09-19T12:17:13;98851.66;;;25.20;42.45
58668;BME280;59852;43.086;25.634;2023-09-19T12:19:39;98843.44;;;25.21;38.76
58668;BME280;59852;43.086;25.634;2023-09-19T12:22:04;98852.13;;;25.30;41.83
58668;BME280;59852;43.086;25.634;2023-09-19T12:24:31;98842.72;;;25.60;41.02
58668;BME280;59852;43.086;25.634;2023-09-19T12:27:03;98838.78;;;25.63;39.42
58668;BME280;59852;43.086;25.634;2023-09-19T12:29:52;98838.78;;;25.50;39.02
58668;BME280;59852;43.086;25.634;2023-09-19T12:32:41;98836.69;;;25.38;39.67
58668;BME280;59852;43.086;25.634;2023-09-19T12:35:07;98835.53;;;25.67;38.48
58668;BME280;59852;43.086;25.634;2023-09-19T12:37:45;98842.47;;;25.55;39.30
58668;BME280;59852;43.086;25.634;2023-09-19T12:40:18;98836.75;;;25.58;38.17
58668;BME280;59852;43.086;25.634;2023-09-19T12:42:50;98836.50;;;25.53;38.19
58668;BME280;59852;43.086;25.634;2023-09-19T12:45:18;98843.53;;;25.61;40.81
58668;BME280;59852;43.086;25.634;2023-09-19T12:50:28;98839.72;;;25.22;39.34
58668;BME280;59852;43.086;25.634;2023-09-19T12:52:55;98832.69;;;24.73;40.84
58668;BME280;59852;43.086;25.634;2023-09-19T12:57:56;98833.09;;;24.77;39.25
58668;BME280;59852;43.086;25.634;2023-09-19T13:00:30;98837.84;;;25.09;39.53
58668;BME280;59852;43.086;25.634;2023-09-19T13:05:47;98838.22;;;25.06;39.13
58668;BME280;59852;43.086;25.634;2023-09-19T13:08:22;98833.50;;;25.15;38.11
58668;BME280;59852;43.086;25.634;2023-09-19T13:14:21;98833.69;;;25.07;38.33
58668;BME280;59852;43.086;25.634;2023-09-19T13:16:20;98834.81;;;24.84;37.32
58668;BME280;59852;43.086;25.634;2023-09-19T13:18:51;98834.44;;;24.94;36.91
58668;BME280;59852;43.086;25.634;2023-09-19T13:21:17;98833.41;;;24.95;36.56
58668;BME280;59852;43.086;25.634;2023-09-19T13:23:52;98826.28;;;25.02;37.60
58668;BME280;59852;43.086;25.634;2023-09-19T13:26:18;98823.44;;;25.10;36.89
58668;BME280;59852;43.086;25.634;2023-09-19T13:28:44;98825.25;;;25.03;37.11
58668;BME280;59852;43.086;25.634;2023-09-19T13:31:10;98819.63;;;24.92;36.82
58668;BME280;59852;43.086;25.634;2023-09-19T13:33:42;98824.59;;;25.01;35.51
58668;BME280;59852;43.086;25.634;2023-09-19T13:36:07;98818.53;;;24.86;36.79
58668;BME280;59852;43.086;25.634;2023-09-19T13:38:33;98824.56;;;24.88;36.35
58668;BME280;59852;43.086;25.634;2023-09-19T13:40:59;98817.94;;;24.84;36.73
58668;BME280;59852;43.086;25.634;2023-09-19T13:43:25;98815.03;;;24.79;36.46
58668;BME280;59852;43.086;25.634;2023-09-19T13:45:51;98820.03;;;24.95;36.23
58668;BME280;59852;43.086;25.634;2023-09-19T13:48:16;98825.75;;;24.85;35.75
58668;BME280;59852;43.086;25.634;2023-09-19T13:50:45;98822.03;;;24.86;35.33
58668;BME280;59852;43.086;25.634;2023-09-19T13:53:10;98818.34;;;24.81;35.95
58668;BME280;59852;43.086;25.634;2023-09-19T13:55:36;98809.91;;;24.84;34.40
58668;BME280;59852;43.086;25.634;2023-09-19T13:58:03;98820.53;;;24.71;34.06
58668;BME280;59852;43.086;25.634;2023-09-19T14:00:30;98809.66;;;24.72;35.60
58668;BME280;59852;43.086;25.634;2023-09-19T14:02:59;98808.31;;;24.55;35.68
58668;BME280;59852;43.086;25.634;2023-09-19T14:05:26;98805.28;;;24.65;35.20
58668;BME280;59852;43.086;25.634;2023-09-19T14:07:53;98799.47;;;24.54;34.76
58668;BME280;59852;43.086;25.634;2023-09-19T14:10:19;98799.88;;;24.51;37.06
58668;BME280;59852;43.086;25.634;2023-09-19T14:12:45;98799.50;;;24.61;34.91
58668;BME280;59852;43.086;25.634;2023-09-19T14:15:11;98797.81;;;24.53;35.68
58668;BME280;59852;43.086;25.634;2023-09-19T14:17:40;98803.47;;;24.37;37.83
58668;BME280;59852;43.086;25.634;2023-09-19T14:20:11;98805.78;;;24.47;34.32
58668;BME280;59852;43.086;25.634;2023-09-19T14:22:37;98808.03;;;24.43;34.70
58668;BME280;59852;43.086;25.634;2023-09-19T14:25:03;98808.44;;;24.40;35.63
58668;BME280;59852;43.086;25.634;2023-09-19T14:27:29;98810.03;;;24.35;35.75
58668;BME280;59852;43.086;25.634;2023-09-19T14:29:54;98808.81;;;24.37;36.14
58668;BME280;59852;43.086;25.634;2023-09-19T14:32:20;98811.78;;;24.49;34.37
58668;BME280;59852;43.086;25.634;2023-09-19T14:34:45;98809.06;;;24.42;35.17
58668;BME280;59852;43.086;25.634;2023-09-19T14:37:11;98815.31;;;24.28;37.69
58668;BME280;59852;43.086;25.634;2023-09-19T14:39:37;98808.47;;;24.19;37.89
58668;BME280;59852;43.086;25.634;2023-09-19T14:42:04;98817.94;;;24.21;37.21
58668;BME280;59852;43.086;25.634;2023-09-19T14:44:30;98809.47;;;24.18;36.46
58668;BME280;59852;43.086;25.634;2023-09-19T14:46:55;98810.91;;;24.14;39.02
58668;BME280;59852;43.086;25.634;2023-09-19T14:49:20;98807.97;;;24.09;37.65
58668;BME280;59852;43.086;25.634;2023-09-19T14:51:46;98816.97;;;24.01;41.01
58668;BME280;59852;43.086;25.634;2023-09-19T14:54:13;98811.16;;;23.97;40.71
58668;BME280;59852;43.086;25.634;2023-09-19T14:56:38;98814.50;;;23.99;40.36
58668;BME280;59852;43.086;25.634;2023-09-19T14:59:04;98807.34;;;24.07;39.45
58668;BME280;59852;43.086;25.634;2023-09-19T15:01:29;98806.16;;;24.09;46.70
58668;BME280;59852;43.086;25.634;2023-09-19T15:03:55;98807.31;;;24.00;47.03
58668;BME280;59852;43.086;25.634;2023-09-19T15:06:20;98803.97;;;23.98;39.86
58668;BME280;59852;43.086;25.634;2023-09-19T15:08:46;98794.78;;;24.00;38.80
58668;BME280;59852;43.086;25.634;2023-09-19T15:11:13;98807.13;;;24.01;37.86
58668;BME280;59852;43.086;25.634;2023-09-19T15:13:40;98807.53;;;24.05;37.11
58668;BME280;59852;43.086;25.634;2023-09-19T15:16:07;98805.13;;;24.10;37.19
58668;BME280;59852;43.086;25.634;2023-09-19T15:18:36;98804.03;;;24.04;36.99
58668;BME280;59852;43.086;25.634;2023-09-19T15:21:09;98807.88;;;23.95;40.36
58668;BME280;59852;43.086;25.634;2023-09-19T15:23:36;98808.00;;;23.87;38.33
58668;BME280;59852;43.086;25.634;2023-09-19T15:26:02;98808.66;;;23.89;38.20
58668;BME280;59852;43.086;25.634;2023-09-19T15:28:27;98801.59;;;23.82;40.83
58668;BME280;59852;43.086;25.634;2023-09-19T15:30:58;98805.88;;;23.76;39.57
58668;BME280;59852;43.086;25.634;2023-09-19T15:33:23;98797.97;;;23.68;40.32
58668;BME280;59852;43.086;25.634;2023-09-19T15:35:49;98804.34;;;23.67;39.91
58668;BME280;59852;43.086;25.634;2023-09-19T15:38:14;98806.00;;;23.68;40.38
58668;BME280;59852;43.086;25.634;2023-09-19T15:40:46;98808.47;;;23.69;40.23
58668;BME280;59852;43.086;25.634;2023-09-19T15:43:11;98800.13;;;23.58;40.57
58668;BME280;59852;43.086;25.634;2023-09-19T15:45:37;98804.72;;;23.64;38.47
58668;BME280;59852;43.086;25.634;2023-09-19T15:48:02;98808.47;;;23.69;38.43
58668;BME280;59852;43.086;25.634;2023-09-19T15:50:30;98804.72;;;23.64;40.32
58668;BME280;59852;43.086;25.634;2023-09-19T15:52:55;98805.03;;;23.54;40.40
58668;BME280;59852;43.086;25.634;2023-09-19T15:55:21;98802.47;;;23.46;40.37
58668;BME280;59852;43.086;25.634;2023-09-19T15:57:46;98797.75;;;23.48;40.34
58668;BME280;59852;43.086;25.634;2023-09-19T16:00:12;98803.81;;;23.35;40.18
58668;BME280;59852;43.086;25.634;2023-09-19T16:02:42;98803.59;;;23.37;40.26
58668;BME280;59852;43.086;25.634;2023-09-19T16:05:07;98801.72;;;23.31;41.76
58668;BME280;59852;43.086;25.634;2023-09-19T16:07:32;98803.00;;;23.20;41.02
58668;BME280;59852;43.086;25.634;2023-09-19T16:10:01;98802.38;;;23.18;40.09
58668;BME280;59852;43.086;25.634;2023-09-19T16:12:27;98804.59;;;23.14;40.37
58668;BME280;59852;43.086;25.634;2023-09-19T16:14:52;98809.84;;;23.08;40.65
58668;BME280;59852;43.086;25.634;2023-09-19T16:17:18;98814.28;;;23.01;40.60
58668;BME280;59852;43.086;25.634;2023-09-19T16:19:43;98824.59;;;22.89;40.72
58668;BME280;59852;43.086;25.634;2023-09-19T16:22:09;98821.59;;;22.92;39.33
58668;BME280;59852;43.086;25.634;2023-09-19T16:24:34;98826.44;;;22.88;41.08
58668;BME280;59852;43.086;25.634;2023-09-19T16:27:00;98829.69;;;22.84;39.41
58668;BME280;59852;43.086;25.634;2023-09-19T16:29:25;98831.50;;;22.83;38.51
58668;BME280;59852;43.086;25.634;2023-09-19T16:31:50;98828.00;;;22.83;39.83
58668;BME280;59852;43.086;25.634;2023-09-19T16:34:17;98826.00;;;22.85;38.69
58668;BME280;59852;43.086;25.634;2023-09-19T16:36:42;98827.19;;;22.82;38.86
58668;BME280;59852;43.086;25.634;2023-09-19T16:39:08;98825.88;;;22.78;39.38
58668;BME280;59852;43.086;25.634;2023-09-19T16:41:33;98828.72;;;22.77;39.52
58668;BME280;59852;43.086;25.634;2023-09-19T16:43:59;98826.44;;;22.88;38.92
58668;BME280;59852;43.086;25.634;2023-09-19T16:46:25;98828.19;;;22.96;41.00
58668;BME280;59852;43.086;25.634;2023-09-19T16:48:51;98835.09;;;22.90;40.77
58668;BME280;59852;43.086;25.634;2023-09-19T16:51:16;98841.19;;;22.84;39.72
58668;BME280;59852;43.086;25.634;2023-09-19T16:53:42;98841.88;;;22.78;39.75
58668;BME280;59852;43.086;25.634;2023-09-19T16:56:08;98842.34;;;22.82;40.49
58668;BME280;59852;43.086;25.634;2023-09-19T16:58:38;98847.41;;;22.77;39.78
58668;BME280;59852;43.086;25.634;2023-09-19T17:01:07;98844.09;;;22.75;38.71
58668;BME280;59852;43.086;25.634;2023-09-19T17:03:45;98846.66;;;22.83;36.33
58668;BME280;59852;43.086;25.634;2023-09-19T17:06:14;98842.69;;;22.79;36.33
58668;BME280;59852;43.086;25.634;2023-09-19T17:08:42;98853.56;;;22.77;36.05
58668;BME280;59852;43.086;25.634;2023-09-19T17:11:12;98843.28;;;22.74;35.89
58668;BME280;59852;43.086;25.634;2023-09-19T17:13:41;98852.00;;;22.68;36.50
58668;BME280;59852;43.086;25.634;2023-09-19T17:16:08;98846.59;;;22.61;37.44
58668;BME280;59852;43.086;25.634;2023-09-19T17:18:33;98850.63;;;22.57;37.88
58668;BME280;59852;43.086;25.634;2023-09-19T17:20:59;98847.94;;;22.57;37.14
58668;BME280;59852;43.086;25.634;2023-09-19T17:23:26;98856.41;;;22.61;37.07
58668;BME280;59852;43.086;25.634;2023-09-19T17:25:58;98861.66;;;22.54;37.70
58668;BME280;59852;43.086;25.634;2023-09-19T17:28:23;98856.03;;;22.49;37.61
58668;BME280;59852;43.086;25.634;2023-09-19T17:30:49;98857.78;;;22.57;37.69
58668;BME280;59852;43.086;25.634;2023-09-19T17:33:15;98863.41;;;22.62;37.38
58668;BME280;59852;43.086;25.634;2023-09-19T17:35:41;98853.84;;;22.68;38.31
58668;BME280;59852;43.086;25.634;2023-09-19T17:38:07;98851.63;;;22.56;38.23
58668;BME280;59852;43.086;25.634;2023-09-19T17:40:38;98839.75;;;22.59;37.93
58668;BME280;59852;43.086;25.634;2023-09-19T17:43:03;98854.28;;;22.56;37.51
58668;BME280;59852;43.086;25.634;2023-09-19T17:45:30;98856.41;;;22.46;38.35
58668;BME280;59852;43.086;25.634;2023-09-19T17:47:55;98859.19;;;22.53;39.97
58668;BME280;59852;43.086;25.634;2023-09-19T17:50:20;98853.34;;;22.35;38.85
58668;BME280;59852;43.086;25.634;2023-09-19T17:52:46;98856.38;;;22.31;38.88
58668;BME280;59852;43.086;25.634;2023-09-19T17:55:11;98858.22;;;22.31;41.42
58668;BME280;59852;43.086;25.634;2023-09-19T17:57:41;98861.44;;;22.26;40.47
58668;BME280;59852;43.086;25.634;2023-09-19T18:00:07;98867.66;;;22.19;40.59
58668;BME280;59852;43.086;25.634;2023-09-19T18:02:34;98868.06;;;21.62;47.61
58668;BME280;59852;43.086;25.634;2023-09-19T18:04:59;98874.88;;;21.87;48.31
58668;BME280;59852;43.086;25.634;2023-09-19T18:07:25;98878.91;;;21.83;47.46
58668;BME280;59852;43.086;25.634;2023-09-19T18:09:50;98875.91;;;21.86;47.91
58668;BME280;59852;43.086;25.634;2023-09-19T18:12:16;98879.31;;;21.95;47.25
58668;BME280;59852;43.086;25.634;2023-09-19T18:14:41;98875.34;;;21.91;45.51
58668;BME280;59852;43.086;25.634;2023-09-19T18:17:07;98869.75;;;21.86;46.28
58668;BME280;59852;43.086;25.634;2023-09-19T18:19:34;98869.44;;;21.81;45.40
58668;BME280;59852;43.086;25.634;2023-09-19T18:22:00;98865.53;;;21.68;45.10
58668;BME280;59852;43.086;25.634;2023-09-19T18:24:28;98870.50;;;21.71;44.62
58668;BME280;59852;43.086;25.634;2023-09-19T18:26:53;98871.63;;;21.77;44.67
58668;BME280;59852;43.086;25.634;2023-09-19T18:29:19;98870.34;;;21.73;45.12
58668;BME280;59852;43.086;25.634;2023-09-19T18:31:44;98867.25;;;21.61;44.75
58668;BME280;59852;43.086;25.634;2023-09-19T18:34:10;98873.22;;;21.63;44.90
58668;BME280;59852;43.086;25.634;2023-09-19T18:36:39;98877.78;;;21.55;44.53
58668;BME280;59852;43.086;25.634;2023-09-19T18:39:04;98874.09;;;21.56;43.89
58668;BME280;59852;43.086;25.634;2023-09-19T18:41:33;98884.41;;;21.59;43.73
58668;BME280;59852;43.086;25.634;2023-09-19T18:44:01;98876.47;;;21.51;43.44
58668;BME280;59852;43.086;25.634;2023-09-19T18:46:27;98870.19;;;21.43;43.97
58668;BME280;59852;43.086;25.634;2023-09-19T18:48:55;98874.16;;;21.47;43.84
58668;BME280;59852;43.086;25.634;2023-09-19T18:51:21;98877.81;;;21.46;44.00
58668;BME280;59852;43.086;25.634;2023-09-19T18:53:49;98878.06;;;21.60;45.13
58668;BME280;59852;43.086;25.634;2023-09-19T18:56:14;98871.75;;;21.30;44.81
58668;BME280;59852;43.086;25.634;2023-09-19T18:58:40;98883.03;;;21.32;44.87
58668;BME280;59852;43.086;25.634;2023-09-19T19:01:06;98880.88;;;21.35;45.91
58668;BME280;59852;43.086;25.634;2023-09-19T19:03:32;98882.78;;;21.50;46.22
58668;BME280;59852;43.086;25.634;2023-09-19T19:06:08;98877.66;;;21.48;47.06
58668;BME280;59852;43.086;25.634;2023-09-19T19:08:34;98881.72;;;21.36;47.28
58668;BME280;59852;43.086;25.634;2023-09-19T19:11:00;98888.91;;;21.27;47.07
58668;BME280;59852;43.086;25.634;2023-09-19T19:13:26;98888.38;;;21.24;46.09
58668;BME280;59852;43.086;25.634;2023-09-19T19:15:51;98890.31;;;20.99;47.33
58668;BME280;59852;43.086;25.634;2023-09-19T19:18:17;98890.31;;;20.99;48.00
58668;BME280;59852;43.086;25.634;2023-09-19T19:20:42;98890.63;;;21.04;48.87
58668;BME280;59852;43.086;25.634;2023-09-19T19:23:08;98884.19;;;20.98;49.30
58668;BME280;59852;43.086;25.634;2023-09-19T19:25:35;98891.88;;;20.85;49.50
58668;BME280;59852;43.086;25.634;2023-09-19T19:28:01;98894.19;;;20.88;49.62
58668;BME280;59852;43.086;25.634;2023-09-19T19:30:28;98899.03;;;20.76;50.46
58668;BME280;59852;43.086;25.634;2023-09-19T19:32:54;98896.41;;;20.68;50.85
58668;BME280;59852;43.086;25.634;2023-09-19T19:35:19;98899.09;;;20.52;51.35
58668;BME280;59852;43.086;25.634;2023-09-19T19:37:44;98894.47;;;20.46;51.68
58668;BME280;59852;43.086;25.634;2023-09-19T19:40:10;98900.75;;;20.45;51.74
58668;BME280;59852;43.086;25.634;2023-09-19T19:42:36;98900.91;;;20.43;51.90
58668;BME280;59852;43.086;25.634;2023-09-19T19:45:02;98904.88;;;20.39;51.81
58668;BME280;59852;43.086;25.634;2023-09-19T19:47:29;98898.59;;;20.32;52.26
58668;BME280;59852;43.086;25.634;2023-09-19T19:49:54;98899.59;;;20.31;52.63
58668;BME280;59852;43.086;25.634;2023-09-19T19:52:23;98905.09;;;20.46;52.52
58668;BME280;59852;43.086;25.634;2023-09-19T19:54:49;98901.06;;;20.42;52.92
58668;BME280;59852;43.086;25.634;2023-09-19T19:57:15;98903.59;;;20.19;53.76
58668;BME280;59852;43.086;25.634;2023-09-19T19:59:42;98898.25;;;20.02;55.02
58668;BME280;59852;43.086;25.634;2023-09-19T20:02:08;98906.22;;;20.02;55.35
58668;BME280;59852;43.086;25.634;2023-09-19T20:04:36;98905.56;;;20.09;55.97
58668;BME280;59852;43.086;25.634;2023-09-19T20:07:03;98906.88;;;19.88;55.88
58668;BME280;59852;43.086;25.634;2023-09-19T20:09:29;98913.53;;;19.92;55.44
58668;BME280;59852;43.086;25.634;2023-09-19T20:11:55;98915.84;;;19.95;54.84
58668;BME280;59852;43.086;25.634;2023-09-19T20:14:20;98919.16;;;19.89;54.52
58668;BME280;59852;43.086;25.634;2023-09-19T20:16:46;98916.84;;;19.78;54.91
58668;BME280;59852;43.086;25.634;2023-09-19T20:19:12;98924.81;;;19.86;54.13
58668;BME280;59852;43.086;25.634;2023-09-19T20:21:37;98917.84;;;19.77;53.91
58668;BME280;59852;43.086;25.634;2023-09-19T20:24:05;98921.78;;;19.73;53.26
58668;BME280;59852;43.086;25.634;2023-09-19T20:26:34;98913.00;;;19.72;53.37
58668;BME280;59852;43.086;25.634;2023-09-19T20:29:00;98917.97;;;19.75;53.67
58668;BME280;59852;43.086;25.634;2023-09-19T20:31:27;98918.50;;;19.79;53.65
58668;BME280;59852;43.086;25.634;2023-09-19T20:33:53;98915.66;;;19.72;53.62
58668;BME280;59852;43.086;25.634;2023-09-19T20:36:18;98919.47;;;19.70;53.97
58668;BME280;59852;43.086;25.634;2023-09-19T20:38:43;98914.13;;;19.62;54.67
58668;BME280;59852;43.086;25.634;2023-09-19T20:41:09;98909.00;;;19.60;53.98
58668;BME280;59852;43.086;25.634;2023-09-19T20:43:35;98912.66;;;19.59;55.02
58668;BME280;59852;43.086;25.634;2023-09-19T20:46:05;98920.06;;;19.47;55.39
58668;BME280;59852;43.086;25.634;2023-09-19T20:48:31;98925.25;;;19.65;55.30
58668;BME280;59852;43.086;25.634;2023-09-19T20:51:03;98919.97;;;19.82;54.55
58668;BME280;59852;43.086;25.634;2023-09-19T20:53:29;98922.03;;;19.54;56.31
58668;BME280;59852;43.086;25.634;2023-09-19T20:55:59;98937.25;;;19.43;55.92
58668;BME280;59852;43.086;25.634;2023-09-19T20:58:24;98926.81;;;19.42;54.63
58668;BME280;59852;43.086;25.634;2023-09-19T21:00:49;98935.97;;;19.47;54.32
58668;BME280;59852;43.086;25.634;2023-09-19T21:03:15;98942.81;;;19.24;55.05
58668;BME280;59852;43.086;25.634;2023-09-19T21:05:41;98945.72;;;19.39;55.22
58668;BME280;59852;43.086;25.634;2023-09-19T21:08:06;98943.50;;;19.26;55.54
58668;BME280;59852;43.086;25.634;2023-09-19T21:10:32;98942.78;;;19.16;56.23
58668;BME280;59852;43.086;25.634;2023-09-19T21:12:58;98940.75;;;19.02;57.02
58668;BME280;59852;43.086;25.634;2023-09-19T21:15:24;98940.13;;;19.08;57.00
58668;BME280;59852;43.086;25.634;2023-09-19T21:17:49;98942.38;;;19.29;56.26
58668;BME280;59852;43.086;25.634;2023-09-19T21:20:15;98936.53;;;19.25;55.83
58668;BME280;59852;43.086;25.634;2023-09-19T21:22:44;98934.78;;;19.42;55.53
58668;BME280;59852;43.086;25.634;2023-09-19T21:25:09;98936.59;;;19.41;55.41
58668;BME280;59852;43.086;25.634;2023-09-19T21:27:34;98942.53;;;19.35;55.91
58668;BME280;59852;43.086;25.634;2023-09-19T21:30:00;98937.56;;;19.32;56.34
58668;BME280;59852;43.086;25.634;2023-09-19T21:32:25;98947.34;;;19.32;57.17
58668;BME280;59852;43.086;25.634;2023-09-19T21:34:51;98945.56;;;19.40;57.85
58668;BME280;59852;43.086;25.634;2023-09-19T21:37:16;98957.00;;;19.07;57.67
58668;BME280;59852;43.086;25.634;2023-09-19T21:39:42;98957.38;;;18.86;59.27
58668;BME280;59852;43.086;25.634;2023-09-19T21:42:07;98960.63;;;18.72;59.41
58668;BME280;59852;43.086;25.634;2023-09-19T21:44:33;98962.63;;;18.78;59.10
58668;BME280;59852;43.086;25.634;2023-09-19T21:46:58;98964.44;;;18.77;58.71
58668;BME280;59852;43.086;25.634;2023-09-19T21:49:25;98969.63;;;18.87;56.90
58668;BME280;59852;43.086;25.634;2023-09-19T21:51:51;98975.47;;;18.90;56.23
58668;BME280;59852;43.086;25.634;2023-09-19T21:54:16;98973.50;;;18.92;55.97
58668;BME280;59852;43.086;25.634;2023-09-19T21:56:42;98973.72;;;18.99;55.14
58668;BME280;59852;43.086;25.634;2023-09-19T21:59:08;98978.06;;;19.08;55.46
58668;BME280;59852;43.086;25.634;2023-09-19T22:01:33;98988.69;;;19.08;55.88
58668;BME280;59852;43.086;25.634;2023-09-19T22:03:58;98982.44;;;19.17;56.25
58668;BME280;59852;43.086;25.634;2023-09-19T22:06:24;98980.63;;;19.26;57.00
58668;BME280;59852;43.086;25.634;2023-09-19T22:08:51;98989.72;;;18.89;62.70
58668;BME280;59852;43.086;25.634;2023-09-19T22:11:16;98986.59;;;18.68;64.05
58668;BME280;59852;43.086;25.634;2023-09-19T22:13:42;98981.63;;;18.91;63.63
58668;BME280;59852;43.086;25.634;2023-09-19T22:16:11;98988.13;;;19.05;62.22
58668;BME280;59852;43.086;25.634;2023-09-19T22:18:39;98991.94;;;18.76;59.67
58668;BME280;59852;43.086;25.634;2023-09-19T22:21:04;98996.66;;;18.65;60.17
58668;BME280;59852;43.086;25.634;2023-09-19T22:23:46;98998.19;;;18.49;58.34
58668;BME280;59852;43.086;25.634;2023-09-19T22:26:13;98992.34;;;18.46;57.03
58668;BME280;59852;43.086;25.634;2023-09-19T22:28:42;99004.66;;;18.55;56.44
58668;BME280;59852;43.086;25.634;2023-09-19T22:31:18;99008.09;;;18.65;57.00
58668;BME280;59852;43.086;25.634;2023-09-19T22:33:50;99005.66;;;18.36;61.54
58668;BME280;59852;43.086;25.634;2023-09-19T22:36:17;99010.59;;;18.31;64.39
58668;BME280;59852;43.086;25.634;2023-09-19T22:38:43;99017.63;;;18.40;64.69
58668;BME280;59852;43.086;25.634;2023-09-19T22:41:09;99020.06;;;18.33;64.48
58668;BME280;59852;43.086;25.634;2023-09-19T22:43:38;99026.19;;;18.52;64.55
58668;BME280;59852;43.086;25.634;2023-09-19T22:46:11;99023.59;;;18.24;64.44
58668;BME280;59852;43.086;25.634;2023-09-19T22:48:39;99022.22;;;18.38;63.23
58668;BME280;59852;43.086;25.634;2023-09-19T22:51:05;99027.69;;;18.37;63.98
58668;BME280;59852;43.086;25.634;2023-09-19T22:53:37;99028.59;;;18.27;63.80
58668;BME280;59852;43.086;25.634;2023-09-19T22:56:10;99036.94;;;18.32;64.41
58668;BME280;59852;43.086;25.634;2023-09-19T22:58:37;99047.50;;;18.15;64.72
58668;BME280;59852;43.086;25.634;2023-09-19T23:01:22;99051.97;;;18.32;64.73
58668;BME280;59852;43.086;25.634;2023-09-19T23:04:01;99051.59;;;18.27;64.66
58668;BME280;59852;43.086;25.634;2023-09-19T23:06:36;99058.13;;;17.87;66.11
58668;BME280;59852;43.086;25.634;2023-09-19T23:09:04;99061.78;;;18.04;65.52
58668;BME280;59852;43.086;25.634;2023-09-19T23:11:33;99071.72;;;18.20;64.31
58668;BME280;59852;43.086;25.634;2023-09-19T23:13:58;99069.00;;;18.29;59.98
58668;BME280;59852;43.086;25.634;2023-09-19T23:16:26;99075.72;;;18.24;60.29
58668;BME280;59852;43.086;25.634;2023-09-19T23:19:14;99087.88;;;18.17;58.79
58668;BME280;59852;43.086;25.634;2023-09-19T23:21:46;99090.00;;;18.13;57.30
58668;BME280;59852;43.086;25.634;2023-09-19T23:24:12;99093.94;;;18.27;57.51
58668;BME280;59852;43.086;25.634;2023-09-19T23:26:42;99085.84;;;18.11;57.64
58668;BME280;59852;43.086;25.634;2023-09-19T23:29:11;99091.78;;;18.22;59.11
58668;BME280;59852;43.086;25.634;2023-09-19T23:31:37;99090.31;;;18.10;60.23
58668;BME280;59852;43.086;25.634;2023-09-19T23:34:05;99102.56;;;17.84;59.99
58668;BME280;59852;43.086;25.634;2023-09-19T23:36:32;99094.84;;;18.00;59.53
58668;BME280;59852;43.086;25.634;2023-09-19T23:38:58;99100.59;;;17.86;59.60
58668;BME280;59852;43.086;25.634;2023-09-19T23:41:23;99087.94;;;17.80;58.76
58668;BME280;59852;43.086;25.634;2023-09-19T23:43:50;99090.22;;;17.74;59.24
58668;BME280;59852;43.086;25.634;2023-09-19T23:46:15;99081.78;;;17.89;58.59
58668;BME280;59852;43.086;25.634;2023-09-19T23:48:40;99082.75;;;18.15;57.82
58668;BME280;59852;43.086;25.634;2023-09-19T23:51:06;99078.75;;;18.47;57.04
58668;BME280;59852;43.086;25.634;2023-09-19T23:53:34;99079.31;;;18.50;56.04